Time,TemperatureF,DewpointF,PressureIn,WindDirection,WindDirectionDegrees,WindSpeedMPH,WindSpeedGustMPH,Humidity,HourlyPrecipIn,Conditions,Clouds,dailyrainin,SoftwareType,DateUTC
2013-06-19 00:01:00,75.0,74.0,29.90,West,259,0.0,0.0,97,0.00,,,0.67,,2013-06-19 04:01:00,
2013-06-19 00:11:00,75.0,74.0,29.90,West,259,0.0,0.0,97,0.00,,,0.67,,2013-06-19 04:11:00,
2013-06-19 00:22:00,75.0,74.0,29.90,West,259,0.0,0.0,97,0.00,,,0.67,,2013-06-19 04:22:00,
2013-06-19 00:32:00,75.0,74.0,29.91,West,259,0.0,0.0,97,0.00,,,0.67,,2013-06-19 04:32:00,
2013-06-19 00:42:00,75.0,74.0,29.91,West,259,0.0,0.0,97,0.00,,,0.67,,2013-06-19 04:42:00,
2013-06-19 00:53:00,75.0,74.0,29.91,West,259,0.0,0.0,97,0.00,,,0.67,,2013-06-19 04:53:00,
2013-06-19 01:01:00,75.0,74.0,29.90,West,259,0.0,0.0,97,0.00,,,0.61,,2013-06-19 05:01:00,
2013-06-19 01:11:00,75.0,74.0,29.90,West,259,0.0,0.0,97,0.00,,,0.61,,2013-06-19 05:11:00,
2013-06-19 01:23:00,74.0,73.0,29.90,West,273,0.0,0.0,97,0.00,,,0.56,,2013-06-19 05:23:00,
2013-06-19 01:32:00,74.0,73.0,29.90,West,273,0.0,0.0,97,0.00,,,0.56,,2013-06-19 05:32:00,
2013-06-19 01:43:00,74.0,73.0,29.90,West,273,0.0,0.0,97,0.00,,,0.56,,2013-06-19 05:43:00,
2013-06-19 01:52:00,74.0,73.0,29.90,West,272,0.0,0.0,97,0.00,,,0.56,,2013-06-19 05:52:00,
2013-06-19 02:02:00,74.0,73.0,29.90,WSW,250,0.0,1.0,97,0.00,,,0.56,,2013-06-19 06:02:00,
2013-06-19 02:11:00,74.0,73.0,29.90,WSW,248,0.0,1.0,97,0.00,,,0.56,,2013-06-19 06:11:00,
2013-06-19 02:22:00,74.0,73.0,29.90,WSW,248,0.0,0.0,97,0.00,,,0.56,,2013-06-19 06:22:00,
2013-06-19 02:34:00,74.0,73.0,29.90,WSW,246,0.0,0.0,97,0.00,,,0.44,,2013-06-19 06:34:00,
2013-06-19 02:42:00,74.0,73.0,29.91,SW,226,0.0,1.0,97,0.00,,,0.44,,2013-06-19 06:42:00,
2013-06-19 02:52:00,74.0,73.0,29.91,SW,226,0.0,1.0,97,0.00,,,0.44,,2013-06-19 06:52:00,
2013-06-19 03:01:00,74.0,73.0,29.91,SW,226,0.0,0.0,97,0.00,,,0.44,,2013-06-19 07:01:00,
2013-06-19 03:11:00,74.0,73.0,29.91,SW,226,0.0,0.0,97,0.00,,,0.44,,2013-06-19 07:11:00,
2013-06-19 03:22:00,74.0,73.0,29.91,SW,226,0.0,0.0,97,0.00,,,0.43,,2013-06-19 07:22:00,
2013-06-19 03:33:00,73.0,72.0,29.91,SW,226,0.0,0.0,97,0.00,,,0.43,,2013-06-19 07:33:00,
2013-06-19 03:43:00,73.0,72.0,29.91,SW,227,0.0,0.0,97,0.00,,,0.43,,2013-06-19 07:43:00,
2013-06-19 03:53:00,73.0,72.0,29.91,SW,226,0.0,0.0,97,0.00,,,0.43,,2013-06-19 07:53:00,
2013-06-19 04:02:00,73.0,72.0,29.91,SW,226,0.0,0.0,98,0.00,,,0.43,,2013-06-19 08:02:00,
2013-06-19 04:11:00,73.0,72.0,29.91,SW,226,0.0,0.0,98,0.00,,,0.43,,2013-06-19 08:11:00,
2013-06-19 04:22:00,73.0,72.0,29.91,SW,226,0.0,0.0,98,0.00,,,0.43,,2013-06-19 08:22:00,
2013-06-19 04:33:00,73.0,72.0,29.91,SW,226,0.0,0.0,98,0.00,,,0.43,,2013-06-19 08:33:00,
2013-06-19 04:43:00,73.0,72.0,29.91,SW,226,0.0,0.0,98,0.00,,,0.43,,2013-06-19 08:43:00,
2013-06-19 13:22:00,82.0,75.0,29.98,ENE,75,2.0,4.0,79,0.00,,,0.43,,2013-06-19 17:22:00,
2013-06-19 13:34:00,83.0,75.0,29.98,East,101,0.0,3.0,78,0.00,,,0.43,,2013-06-19 17:34:00,
2013-06-19 13:43:00,80.0,74.0,29.98,NNW,327,0.0,3.0,83,0.00,,,0.43,,2013-06-19 17:43:00,
2013-06-19 13:53:00,80.0,75.0,29.98,NNW,328,0.0,1.0,85,0.00,,,0.43,,2013-06-19 17:53:00,
2013-06-19 14:02:00,79.0,74.0,29.98,East,95,0.0,1.0,86,0.00,,,0.43,,2013-06-19 18:02:00,
2013-06-19 14:11:00,78.0,74.0,29.98,ESE,113,0.0,1.0,88,0.00,,,0.43,,2013-06-19 18:11:00,
2013-06-19 14:24:00,78.0,75.0,29.98,North,357,0.0,2.0,90,0.04,,,0.47,,2013-06-19 18:24:00,
2013-06-19 14:33:00,78.0,75.0,29.98,North,356,0.0,1.0,92,0.06,,,0.49,,2013-06-19 18:33:00,
2013-06-19 14:44:00,77.0,75.0,29.98,North,357,0.0,1.0,93,0.07,,,0.50,,2013-06-19 18:44:00,
2013-06-19 14:53:00,77.0,75.0,29.98,East,91,1.0,1.0,93,0.08,,,0.51,,2013-06-19 18:53:00,
2013-06-19 15:01:00,77.0,75.0,29.98,East,89,0.0,1.0,94,0.08,,,0.51,,2013-06-19 19:01:00,
2013-06-19 15:12:00,77.0,75.0,29.98,ENE,70,0.0,1.0,94,0.08,,,0.51,,2013-06-19 19:12:00,
2013-06-19 15:22:00,77.0,75.0,29.97,ENE,70,1.0,1.0,94,0.09,,,0.52,,2013-06-19 19:22:00,
2013-06-19 15:32:00,77.0,75.0,29.97,NE,41,1.0,2.0,94,0.03,,,0.52,,2013-06-19 19:32:00,
2013-06-19 15:43:00,76.0,74.0,29.98,NW,310,0.0,1.0,94,0.01,,,0.52,,2013-06-19 19:43:00,
2013-06-19 15:52:00,76.0,74.0,29.98,NW,312,0.0,1.0,94,0.01,,,0.52,,2013-06-19 19:52:00,
2013-06-19 16:02:00,76.0,74.0,29.98,NW,311,0.0,1.0,94,0.01,,,0.52,,2013-06-19 20:02:00,
2013-06-19 16:11:00,75.0,73.0,29.99,ENE,75,0.0,3.0,94,0.02,,,0.53,,2013-06-19 20:11:00,
2013-06-19 16:22:00,75.0,73.0,29.98,ENE,75,0.0,1.0,95,0.01,,,0.27,,2013-06-19 20:22:00,
2013-06-19 16:33:00,75.0,73.0,29.98,ENE,75,0.0,0.0,95,0.01,,,0.27,,2013-06-19 20:33:00,
2013-06-19 16:42:00,75.0,73.0,29.97,ENE,75,1.0,2.0,95,0.01,,,0.27,,2013-06-19 20:42:00,
2013-06-19 16:52:00,75.0,74.0,29.96,ENE,68,1.0,2.0,96,0.01,,,0.27,,2013-06-19 20:52:00,
2013-06-19 17:02:00,74.0,72.0,29.96,NE,40,0.0,3.0,95,0.01,,,0.27,,2013-06-19 21:02:00,
2013-06-19 17:11:00,75.0,74.0,29.97,NE,51,0.0,3.0,96,0.00,,,0.27,,2013-06-19 21:11:00,
2013-06-19 17:22:00,75.0,73.0,29.98,SW,217,0.0,2.0,95,0.00,,,0.10,,2013-06-19 21:22:00,
2013-06-19 17:33:00,76.0,74.0,29.99,SW,225,0.0,1.0,94,0.00,,,0.10,,2013-06-19 21:33:00,
2013-06-19 17:44:00,76.0,74.0,29.99,ENE,60,0.0,1.0,92,0.00,,,0.10,,2013-06-19 21:44:00,
2013-06-19 17:52:00,76.0,74.0,29.98,ENE,64,0.0,2.0,92,0.00,,,0.10,,2013-06-19 21:52:00,
2013-06-19 18:02:00,76.0,74.0,29.98,ENE,64,1.0,1.0,93,0.00,,,0.10,,2013-06-19 22:02:00,
2013-06-19 18:11:00,77.0,75.0,29.98,ENE,68,0.0,2.0,93,0.00,,,0.10,,2013-06-19 22:11:00,
2013-06-19 18:22:00,77.0,74.0,29.98,NNW,327,1.0,5.0,91,0.00,,,0.10,,2013-06-19 22:22:00,
2013-06-19 18:34:00,77.0,74.0,29.98,NNW,329,0.0,5.0,92,0.00,,,0.10,,2013-06-19 22:34:00,
2013-06-19 18:43:00,77.0,74.0,29.99,NNW,329,0.0,1.0,92,0.00,,,0.10,,2013-06-19 22:43:00,
2013-06-19 18:53:00,77.0,74.0,30.00,South,169,0.0,2.0,91,0.00,,,0.10,,2013-06-19 22:53:00,
2013-06-19 19:02:00,77.0,74.0,30.00,WSW,238,0.0,2.0,91,0.00,,,0.10,,2013-06-19 23:02:00,
2013-06-19 19:12:00,76.0,74.0,30.00,WSW,238,0.0,1.0,93,0.00,,,0.10,,2013-06-19 23:12:00,
2013-06-19 19:23:00,76.0,74.0,30.00,WSW,238,0.0,0.0,94,0.00,,,0.10,,2013-06-19 23:23:00,
2013-06-19 19:33:00,75.0,73.0,30.00,WSW,237,0.0,0.0,94,0.00,,,0.10,,2013-06-19 23:33:00,
2013-06-19 19:43:00,75.0,72.0,29.98,ENE,68,0.0,2.0,91,0.00,,,0.10,,2013-06-19 23:43:00,
2013-06-19 19:52:00,75.0,72.0,29.99,ENE,68,0.0,1.0,90,0.00,,,0.10,,2013-06-19 23:52:00,
2013-06-19 20:01:00,75.0,71.0,30.00,ENE,60,0.0,4.0,86,0.00,,,0.10,,2013-06-20 00:01:00,
2013-06-19 20:12:00,75.0,71.0,30.00,SSE,167,0.0,2.0,88,0.00,,,0.10,,2013-06-20 00:12:00,
2013-06-19 20:22:00,74.0,70.0,30.01,SW,220,0.0,2.0,87,0.00,,,0.10,,2013-06-20 00:22:00,
2013-06-19 20:33:00,74.0,70.0,30.01,SW,222,0.0,0.0,88,0.00,,,0.10,,2013-06-20 00:33:00,
2013-06-19 20:44:00,73.0,70.0,30.01,SW,223,0.0,0.0,89,0.00,,,0.10,,2013-06-20 00:44:00,
2013-06-19 20:52:00,73.0,70.0,30.02,SW,222,0.0,0.0,90,0.00,,,0.10,,2013-06-20 00:52:00,
2013-06-19 21:02:00,73.0,70.0,30.03,SW,223,0.0,0.0,90,0.00,,,0.10,,2013-06-20 01:02:00,
2013-06-19 21:11:00,72.0,70.0,30.03,SW,221,0.0,0.0,93,0.00,,,0.10,,2013-06-20 01:11:00,
2013-06-19 21:22:00,72.0,70.0,30.04,SW,222,0.0,0.0,94,0.00,,,0.10,,2013-06-20 01:22:00,
2013-06-19 21:33:00,71.0,69.0,30.04,SW,222,0.0,0.0,94,0.00,,,0.10,,2013-06-20 01:33:00,
2013-06-19 21:44:00,71.0,69.0,30.05,SW,222,0.0,0.0,95,0.00,,,0.10,,2013-06-20 01:44:00,
2013-06-19 21:52:00,71.0,69.0,30.04,SW,222,0.0,0.0,95,0.00,,,0.10,,2013-06-20 01:52:00,
2013-06-19 22:02:00,71.0,69.0,30.05,SW,222,0.0,0.0,95,0.00,,,0.10,,2013-06-20 02:02:00,
2013-06-19 22:11:00,70.0,69.0,30.05,SW,222,0.0,0.0,96,0.00,,,0.10,,2013-06-20 02:11:00,
2013-06-19 22:24:00,70.0,69.0,30.06,SW,222,0.0,0.0,96,0.00,,,0.10,,2013-06-20 02:24:00,
2013-06-19 22:34:00,70.0,69.0,30.06,SW,222,0.0,0.0,96,0.00,,,0.10,,2013-06-20 02:34:00,
2013-06-19 22:43:00,70.0,69.0,30.06,SW,222,0.0,0.0,96,0.00,,,0.10,,2013-06-20 02:43:00,
2013-06-19 22:52:00,70.0,69.0,30.06,SW,222,0.0,0.0,96,0.00,,,0.10,,2013-06-20 02:52:00,
2013-06-19 23:02:00,70.0,69.0,30.07,SW,222,0.0,0.0,96,0.00,,,0.10,,2013-06-20 03:02:00,
2013-06-19 23:11:00,69.0,68.0,30.07,SW,222,0.0,0.0,96,0.00,,,0.10,,2013-06-20 03:11:00,
2013-06-19 23:22:00,69.0,68.0,30.07,SW,222,0.0,0.0,96,0.00,,,0.10,,2013-06-20 03:22:00,
2013-06-19 23:33:00,69.0,68.0,30.07,SW,222,0.0,0.0,97,0.00,,,0.10,,2013-06-20 03:33:00,
2013-06-19 23:43:00,69.0,68.0,30.07,SW,222,0.0,0.0,97,0.00,,,0.10,,2013-06-20 03:43:00,
2013-06-19 23:53:00,69.0,68.0,30.07,SW,222,0.0,0.0,97,0.00,,,0.10,,2013-06-20 03:53:00,